createdAt,value
2022-08-05T00:00:02.926Z,26.80
2022-08-05T00:01:20.398Z,26.80
2022-08-05T00:02:07.547Z,26.80
2022-08-05T00:03:03.118Z,26.80
2022-08-05T00:04:03.069Z,26.80
2022-08-05T00:05:05.595Z,26.80
2022-08-05T00:06:06.739Z,26.80
2022-08-05T00:07:21.693Z,26.70
2022-08-05T00:08:03.643Z,26.70
2022-08-05T00:09:03.250Z,26.70
2022-08-05T00:10:03.654Z,26.70
2022-08-05T00:11:03.412Z,26.70
2022-08-05T00:12:03.441Z,26.70
2022-08-05T00:13:03.402Z,26.70
2022-08-05T00:14:12.169Z,26.70
2022-08-05T00:15:14.054Z,26.70
2022-08-05T00:16:03.429Z,26.70
2022-08-05T00:17:02.972Z,26.60
2022-08-05T00:18:02.822Z,26.60
2022-08-05T00:19:02.863Z,26.60
2022-08-05T00:20:04.398Z,26.60
2022-08-05T00:21:02.909Z,26.60
2022-08-05T00:22:02.908Z,26.60
2022-08-05T00:23:02.974Z,26.60
2022-08-05T00:24:10.192Z,26.50
2022-08-05T00:25:03.285Z,26.50
2022-08-05T00:26:03.350Z,26.40
2022-08-05T00:27:04.595Z,26.40
2022-08-05T00:28:03.426Z,26.40
2022-08-05T00:29:03.469Z,26.40
2022-08-05T00:30:03.574Z,26.30
2022-08-05T00:31:04.356Z,26.30
2022-08-05T00:32:09.489Z,26.30
2022-08-05T00:33:03.613Z,26.30
2022-08-05T00:34:43.161Z,26.30
2022-08-05T00:35:06.476Z,26.30
2022-08-05T00:36:15.414Z,26.20
2022-08-05T00:37:09.532Z,26.20
2022-08-05T00:38:02.683Z,26.20
2022-08-05T00:39:02.696Z,26.20
2022-08-05T00:40:02.915Z,26.10
2022-08-05T00:41:02.781Z,26.10
2022-08-05T00:42:02.805Z,26.00
2022-08-05T00:43:02.873Z,26.00
2022-08-05T00:44:02.882Z,25.90
2022-08-05T00:45:02.953Z,25.80
2022-08-05T00:46:03.124Z,25.80
2022-08-05T00:47:04.316Z,25.80
2022-08-05T00:48:05.854Z,25.80
2022-08-05T00:49:03.100Z,25.70
2022-08-05T00:50:03.091Z,25.70
2022-08-05T00:51:08.887Z,25.70
2022-08-05T00:52:02.704Z,25.70
2022-08-05T00:53:02.673Z,25.70
2022-08-05T00:54:03.201Z,25.70
2022-08-05T00:55:03.101Z,25.70
2022-08-05T00:56:03.117Z,25.70
2022-08-05T00:57:03.277Z,25.70
2022-08-05T00:58:03.178Z,25.70
2022-08-05T00:59:03.266Z,25.70
2022-08-05T01:00:03.307Z,25.70
2022-08-05T01:01:03.275Z,25.70
2022-08-05T01:02:03.229Z,25.70
2022-08-05T01:03:03.436Z,25.70
2022-08-05T01:04:03.328Z,25.70
2022-08-05T01:05:05.156Z,25.70
2022-08-05T01:06:03.889Z,25.80
2022-08-05T01:07:05.199Z,25.70
2022-08-05T01:08:30.525Z,25.70
2022-08-05T01:09:03.278Z,25.70
2022-08-05T01:10:03.264Z,25.70
2022-08-05T01:11:03.228Z,25.70
2022-08-05T01:12:04.878Z,25.70
2022-08-05T01:13:03.354Z,25.70
2022-08-05T01:14:03.444Z,25.60
2022-08-05T01:15:03.814Z,25.60
2022-08-05T01:16:03.473Z,25.60
2022-08-05T01:19:03.611Z,25.50
2022-08-05T01:20:03.777Z,25.50
2022-08-05T01:21:02.633Z,25.50
2022-08-05T01:22:02.722Z,25.50
2022-08-05T01:23:05.874Z,25.50
2022-08-05T01:24:02.773Z,25.40
2022-08-05T01:25:02.791Z,25.40
2022-08-05T01:26:02.867Z,25.40
2022-08-05T01:27:18.009Z,25.40
2022-08-05T01:28:02.809Z,25.40
2022-08-05T01:29:03.486Z,25.40
2022-08-05T01:30:02.865Z,25.40
2022-08-05T01:31:03.137Z,25.40
2022-08-05T01:32:03.489Z,25.30
2022-08-05T01:33:03.582Z,25.30
2022-08-05T01:34:03.529Z,25.30
2022-08-05T01:35:03.629Z,25.20
2022-08-05T01:36:02.737Z,25.20
2022-08-05T01:37:02.861Z,25.20
2022-08-05T01:38:02.771Z,25.20
2022-08-05T01:39:02.841Z,25.20
2022-08-05T01:40:02.918Z,25.10
2022-08-05T01:41:02.784Z,25.10
2022-08-05T01:42:02.796Z,25.10
2022-08-05T01:43:03.658Z,25.10
2022-08-05T01:44:02.767Z,25.10
2022-08-05T01:45:03.176Z,25.10
2022-08-05T01:46:07.005Z,25.10
2022-08-05T01:47:02.598Z,25.00
2022-08-05T01:48:02.754Z,25.00
2022-08-05T01:49:02.816Z,25.00
2022-08-05T01:50:03.187Z,25.00
2022-08-05T01:51:12.212Z,25.00
2022-08-05T01:52:02.846Z,24.90
2022-08-05T01:53:02.923Z,24.90
2022-08-05T01:54:03.047Z,24.90
2022-08-05T01:55:04.275Z,24.90
2022-08-05T01:56:04.392Z,24.90
2022-08-05T01:58:08.932Z,24.80
2022-08-05T01:58:09.007Z,24.80
2022-08-05T01:59:03.583Z,24.70
2022-08-05T02:00:03.631Z,24.70
2022-08-05T02:01:03.640Z,24.70
2022-08-05T02:02:02.681Z,24.70
2022-08-05T02:03:03.483Z,24.60
2022-08-05T02:04:02.642Z,24.60
2022-08-05T02:05:03.048Z,24.60
2022-08-05T02:06:03.487Z,24.60
2022-08-05T02:07:03.461Z,24.60
2022-08-05T02:08:02.854Z,24.60
2022-08-05T02:09:02.936Z,24.60
2022-08-05T02:10:02.893Z,24.50
2022-08-05T02:11:02.841Z,24.50
2022-08-05T02:12:02.844Z,24.50
2022-08-05T02:13:02.904Z,24.40
2022-08-05T02:14:02.890Z,24.40
2022-08-05T02:15:02.929Z,24.40
2022-08-05T02:16:02.925Z,24.40
2022-08-05T02:17:02.916Z,24.40
2022-08-05T02:18:29.040Z,24.40
2022-08-05T02:19:07.142Z,24.30
2022-08-05T02:20:03.076Z,24.30
2022-08-05T02:21:03.054Z,24.30
2022-08-05T02:22:03.067Z,24.30
2022-08-05T02:23:03.062Z,24.20
2022-08-05T02:24:03.104Z,24.20
2022-08-05T02:25:03.134Z,24.20
2022-08-05T02:26:03.224Z,24.20
2022-08-05T02:27:09.154Z,24.10
2022-08-05T02:28:08.611Z,24.10
2022-08-05T02:29:03.918Z,24.10
2022-08-05T02:30:03.393Z,24.00
2022-08-05T02:31:04.082Z,24.00
2022-08-05T02:32:04.540Z,24.00
2022-08-05T02:33:03.550Z,24.00
2022-08-05T02:34:02.631Z,23.90
2022-08-05T02:35:09.780Z,23.90
2022-08-05T02:36:02.705Z,23.90
2022-08-05T02:37:02.698Z,23.90
2022-08-05T02:38:02.703Z,23.90
2022-08-05T02:39:02.775Z,23.90
2022-08-05T02:40:02.650Z,23.80
2022-08-05T02:41:06.549Z,23.80
2022-08-05T02:42:03.606Z,23.80
2022-08-05T02:43:03.522Z,23.80
2022-08-05T02:44:06.666Z,23.80
2022-08-05T02:45:03.527Z,23.80
2022-08-05T02:46:03.582Z,23.80
2022-08-05T02:47:03.608Z,23.80
2022-08-05T02:48:07.156Z,23.70
2022-08-05T02:49:02.746Z,23.80
2022-08-05T02:50:02.685Z,23.80
2022-08-05T02:51:02.714Z,23.80
2022-08-05T02:52:04.548Z,23.70
2022-08-05T02:53:02.864Z,23.70
2022-08-05T02:54:04.124Z,23.70
2022-08-05T02:55:05.320Z,23.70
2022-08-05T02:56:02.959Z,23.70
2022-08-05T02:57:03.042Z,23.60
2022-08-05T02:58:18.407Z,23.60
2022-08-05T02:59:03.274Z,23.60
2022-08-05T03:00:03.384Z,23.60
2022-08-05T03:01:03.510Z,23.50
2022-08-05T03:02:03.524Z,23.50
2022-08-05T03:03:03.385Z,23.40
2022-08-05T03:04:04.308Z,23.40
2022-08-05T03:05:03.431Z,23.40
2022-08-05T03:06:53.112Z,23.30
2022-08-05T03:07:03.625Z,23.30
2022-08-05T03:08:07.242Z,23.30
2022-08-05T03:09:03.496Z,23.30
2022-08-05T03:10:03.390Z,23.30
2022-08-05T03:11:54.090Z,23.30
2022-08-05T03:12:01.945Z,23.30
2022-08-05T03:14:03.560Z,23.30
2022-08-05T03:15:02.917Z,23.30
2022-08-05T03:16:02.869Z,23.30
2022-08-05T03:17:06.163Z,23.20
2022-08-05T03:18:03.085Z,23.20
2022-08-05T03:19:03.439Z,23.20
2022-08-05T03:20:03.118Z,23.10
2022-08-05T03:21:03.107Z,23.10
2022-08-05T03:22:04.783Z,23.10
2022-08-05T03:23:03.287Z,23.10
2022-08-05T03:24:03.332Z,23.00
2022-08-05T03:25:11.606Z,23.00
2022-08-05T03:26:04.127Z,23.00
2022-08-05T03:27:03.947Z,23.00
2022-08-05T03:28:02.789Z,23.00
2022-08-05T03:29:02.697Z,23.00
2022-08-05T03:30:08.000Z,23.00
2022-08-05T03:31:02.846Z,23.00
2022-08-05T03:32:02.884Z,23.00
2022-08-05T03:33:02.879Z,23.00
2022-08-05T03:34:02.935Z,22.90
2022-08-05T03:35:04.287Z,22.90
2022-08-05T03:36:02.975Z,22.80
2022-08-05T03:37:03.445Z,22.80
2022-08-05T03:38:02.731Z,22.80
2022-08-05T03:39:02.665Z,22.70
2022-08-05T03:40:03.932Z,22.70
2022-08-05T03:41:04.115Z,22.70
2022-08-05T03:42:03.528Z,22.70
2022-08-05T03:43:16.129Z,22.70
2022-08-05T03:44:10.117Z,22.70
2022-08-05T03:45:11.808Z,22.70
2022-08-05T03:46:03.562Z,22.70
2022-08-05T03:47:03.433Z,22.70
2022-08-05T03:48:03.529Z,22.70
2022-08-05T03:49:03.502Z,22.70
2022-08-05T03:50:03.646Z,22.80
2022-08-05T03:51:04.860Z,22.80
2022-08-05T03:52:36.433Z,22.80
2022-08-05T03:54:59.943Z,22.80
2022-08-05T03:55:00.622Z,22.80
2022-08-05T03:55:54.278Z,22.80
2022-08-05T03:56:09.600Z,22.80
2022-08-05T03:57:16.217Z,22.90
2022-08-05T03:58:03.028Z,22.90
2022-08-05T03:59:03.031Z,22.90
2022-08-05T04:00:03.244Z,22.90
2022-08-05T04:01:04.010Z,22.90
2022-08-05T04:02:03.199Z,22.90
2022-08-05T04:03:03.214Z,22.90
2022-08-05T04:04:09.593Z,22.90
2022-08-05T04:05:03.086Z,22.90
2022-08-05T04:06:03.154Z,22.90
2022-08-05T04:07:03.090Z,22.90
2022-08-05T04:08:03.200Z,22.90
2022-08-05T04:09:03.251Z,22.80
2022-08-05T04:10:03.392Z,22.80
2022-08-05T04:11:03.382Z,22.70
2022-08-05T04:12:03.385Z,22.70
2022-08-05T04:13:03.492Z,22.60
2022-08-05T04:14:03.379Z,22.60
2022-08-05T04:15:03.439Z,22.50
2022-08-05T04:16:04.622Z,22.50
2022-08-05T04:17:03.431Z,22.40
2022-08-05T04:18:03.536Z,22.40
2022-08-05T04:19:03.630Z,22.40
2022-08-05T04:20:03.538Z,22.40
2022-08-05T04:21:02.620Z,22.40
2022-08-05T04:22:05.486Z,22.40
2022-08-05T04:23:02.739Z,22.40
2022-08-05T04:24:06.084Z,22.40
2022-08-05T04:25:03.051Z,22.40
2022-08-05T04:26:03.027Z,22.40
2022-08-05T04:27:03.167Z,22.40
2022-08-05T04:28:05.838Z,22.40
2022-08-05T04:29:05.563Z,22.40
2022-08-05T04:30:03.675Z,22.40
2022-08-05T04:31:04.003Z,22.50
2022-08-05T04:32:03.238Z,22.50
2022-08-05T04:33:03.326Z,22.50
2022-08-05T04:34:17.780Z,22.60
2022-08-05T04:35:02.615Z,22.60
2022-08-05T04:36:09.561Z,22.60
2022-08-05T04:37:03.657Z,22.60
2022-08-05T04:38:06.687Z,22.60
2022-08-05T04:39:02.704Z,22.60
2022-08-05T04:40:02.726Z,22.70
2022-08-05T04:41:03.509Z,22.80
2022-08-05T04:42:03.739Z,22.90
2022-08-05T04:43:02.823Z,23.00
2022-08-05T04:44:08.799Z,23.10
2022-08-05T04:45:02.861Z,23.10
2022-08-05T04:46:02.880Z,23.30
2022-08-05T04:47:08.624Z,23.40
2022-08-05T04:48:02.895Z,23.50
2022-08-05T04:49:03.071Z,23.60
2022-08-05T04:50:11.006Z,23.70
2022-08-05T04:51:09.916Z,23.80
2022-08-05T04:52:02.977Z,23.90
2022-08-05T04:53:03.051Z,24.00
2022-08-05T04:54:03.048Z,24.10
2022-08-05T04:55:05.354Z,24.20
2022-08-05T04:56:15.705Z,24.30
2022-08-05T04:57:03.339Z,24.40
2022-08-05T04:58:03.332Z,24.50
2022-08-05T04:59:13.908Z,24.60
2022-08-05T05:00:03.467Z,24.80
2022-08-05T05:01:03.440Z,24.90
2022-08-05T05:02:06.628Z,25.00
2022-08-05T05:03:03.877Z,25.10
2022-08-05T05:04:02.798Z,25.30
2022-08-05T05:05:03.286Z,25.40
2022-08-05T05:06:35.768Z,25.50
2022-08-05T05:07:02.713Z,25.60
2022-08-05T05:08:02.765Z,25.80
2022-08-05T05:09:05.467Z,25.90
2022-08-05T05:10:03.007Z,26.00
2022-08-05T05:11:02.950Z,26.10
2022-08-05T05:12:03.232Z,26.20
2022-08-05T05:13:04.180Z,26.40
2022-08-05T05:14:02.893Z,26.40
2022-08-05T05:15:03.601Z,26.60
2022-08-05T05:16:06.003Z,26.70
2022-08-05T05:17:03.436Z,26.80
2022-08-05T05:18:03.261Z,26.90
2022-08-05T05:19:18.032Z,27.00
2022-08-05T05:20:03.419Z,27.20
2022-08-05T05:21:04.001Z,27.30
2022-08-05T05:22:23.359Z,27.40
2022-08-05T05:23:06.911Z,27.50
2022-08-05T05:24:04.353Z,27.60
2022-08-05T05:25:16.314Z,27.70
2022-08-05T05:26:03.522Z,27.80
2022-08-05T05:27:03.522Z,27.90
2022-08-05T05:28:03.554Z,28.00
2022-08-05T05:29:02.720Z,28.10
2022-08-05T05:30:05.133Z,28.20
2022-08-05T05:31:05.602Z,28.20
2022-08-05T05:32:03.521Z,28.30
2022-08-05T05:33:09.229Z,28.40
2022-08-05T05:34:03.500Z,28.40
2022-08-05T05:35:03.613Z,28.50
2022-08-05T05:36:03.508Z,28.50
2022-08-05T05:37:02.690Z,28.60
2022-08-05T05:38:02.678Z,28.60
2022-08-05T05:39:03.680Z,28.70
2022-08-05T05:40:02.894Z,28.70
2022-08-05T05:41:02.822Z,28.80
2022-08-05T05:42:02.969Z,28.70
2022-08-05T05:43:03.024Z,28.70
2022-08-05T05:44:03.084Z,28.70
2022-08-05T05:45:03.169Z,28.60
2022-08-05T05:46:03.093Z,28.50
2022-08-05T05:47:04.548Z,28.40
2022-08-05T05:48:05.867Z,28.30
2022-08-05T05:49:06.382Z,28.20
2022-08-05T05:50:04.175Z,28.20
2022-08-05T05:51:05.128Z,28.10
2022-08-05T05:52:05.756Z,28.10
2022-08-05T05:53:02.760Z,28.00
2022-08-05T05:54:02.882Z,28.00
2022-08-05T05:55:05.936Z,27.90
2022-08-05T05:56:03.223Z,27.80
2022-08-05T05:57:02.907Z,27.80
2022-08-05T05:58:03.033Z,27.70
2022-08-05T05:59:05.538Z,27.60
2022-08-05T06:00:03.117Z,27.50
2022-08-05T06:01:12.533Z,27.50
2022-08-05T06:02:03.120Z,27.40
2022-08-05T06:03:03.111Z,27.30
2022-08-05T06:04:04.105Z,27.20
2022-08-05T06:05:03.385Z,27.20
2022-08-05T06:06:02.929Z,27.10
2022-08-05T06:07:02.904Z,27.00
2022-08-05T06:08:03.818Z,26.90
2022-08-05T06:09:03.273Z,26.90
2022-08-05T06:10:07.079Z,26.80
2022-08-05T06:11:02.947Z,26.70
2022-08-05T06:12:03.075Z,26.70
2022-08-05T06:13:03.090Z,26.60
2022-08-05T06:14:03.204Z,26.60
2022-08-05T06:15:03.304Z,26.50
2022-08-05T06:16:27.872Z,26.50
2022-08-05T06:17:21.834Z,26.40
2022-08-05T06:18:03.429Z,26.30
2022-08-05T06:19:05.595Z,26.30
2022-08-05T06:20:03.552Z,26.30
2022-08-05T06:21:03.608Z,26.20
2022-08-05T06:22:02.792Z,26.20
2022-08-05T06:23:03.334Z,26.10
2022-08-05T06:24:02.747Z,26.10
2022-08-05T06:25:24.855Z,26.10
2022-08-05T06:26:13.177Z,26.00
2022-08-05T06:27:03.971Z,26.00
2022-08-05T06:28:09.948Z,26.00
2022-08-05T06:29:06.413Z,26.00
2022-08-05T06:30:07.710Z,25.90
2022-08-05T06:31:11.003Z,25.90
2022-08-05T06:32:03.150Z,25.90
2022-08-05T06:33:03.195Z,25.90
2022-08-05T06:34:06.593Z,25.90
2022-08-05T06:35:05.921Z,25.90
2022-08-05T06:36:08.147Z,25.90
2022-08-05T06:37:03.502Z,25.90
2022-08-05T06:38:08.285Z,25.90
2022-08-05T06:39:03.728Z,25.90
2022-08-05T06:40:02.661Z,25.90
2022-08-05T06:41:02.725Z,25.90
2022-08-05T06:42:03.973Z,25.90
2022-08-05T06:43:02.783Z,26.00
2022-08-05T06:44:02.787Z,26.00
2022-08-05T06:45:05.199Z,26.00
2022-08-05T06:46:06.687Z,26.10
2022-08-05T06:47:02.962Z,26.20
2022-08-05T06:48:12.141Z,26.30
2022-08-05T06:49:03.498Z,26.30
2022-08-05T06:50:04.910Z,26.50
2022-08-05T06:51:03.332Z,26.50
2022-08-05T06:52:03.434Z,26.60
2022-08-05T06:53:11.359Z,26.70
2022-08-05T06:54:02.723Z,26.70
2022-08-05T06:55:02.771Z,26.80
2022-08-05T06:56:02.900Z,26.90
2022-08-05T06:57:14.000Z,27.00
2022-08-05T06:58:13.972Z,27.10
2022-08-05T06:59:03.569Z,27.20
2022-08-05T07:00:02.714Z,27.30
2022-08-05T07:01:02.753Z,27.40
2022-08-05T07:02:02.685Z,27.50
2022-08-05T07:03:02.819Z,27.60
2022-08-05T07:04:03.081Z,27.70
2022-08-05T07:05:02.919Z,27.80
2022-08-05T07:06:05.602Z,27.90
2022-08-05T07:07:02.963Z,28.00
2022-08-05T07:08:02.962Z,28.10
2022-08-05T07:09:03.946Z,28.20
2022-08-05T07:10:03.320Z,28.30
2022-08-05T07:11:03.032Z,28.40
2022-08-05T07:12:03.138Z,28.50
2022-08-05T07:13:03.094Z,28.50
2022-08-05T07:14:03.238Z,28.60
2022-08-05T07:15:03.253Z,28.70
2022-08-05T07:16:04.370Z,28.80
2022-08-05T07:17:57.689Z,28.80
2022-08-05T07:18:07.362Z,28.80
2022-08-05T07:19:03.559Z,28.90
2022-08-05T07:20:33.206Z,29.00
2022-08-05T07:21:04.625Z,29.00
2022-08-05T07:22:03.568Z,29.10
2022-08-05T07:23:04.528Z,29.10
2022-08-05T07:24:02.743Z,29.10
2022-08-05T07:25:22.277Z,29.10
2022-08-05T07:26:03.623Z,29.10
2022-08-05T07:27:03.555Z,29.20
2022-08-05T07:28:05.505Z,29.20
2022-08-05T07:29:02.747Z,29.30
2022-08-05T07:30:22.446Z,29.40
2022-08-05T07:31:02.900Z,29.40
2022-08-05T07:32:03.862Z,29.50
2022-08-05T07:33:05.288Z,29.60
2022-08-05T07:34:02.994Z,29.60
2022-08-05T07:35:56.149Z,29.70
2022-08-05T07:36:20.475Z,29.70
2022-08-05T07:37:03.194Z,29.80
2022-08-05T07:38:03.366Z,29.90
2022-08-05T07:39:03.437Z,29.90
2022-08-05T07:40:04.850Z,29.90
2022-08-05T07:41:16.902Z,30.00
2022-08-05T07:42:09.986Z,30.10
2022-08-05T07:43:04.799Z,30.10
2022-08-05T07:44:03.440Z,30.20
2022-08-05T07:45:03.557Z,30.30
2022-08-05T07:46:02.688Z,30.30
2022-08-05T07:47:02.665Z,30.40
2022-08-05T07:48:02.753Z,30.50
2022-08-05T07:49:05.229Z,30.50
2022-08-05T07:50:06.453Z,30.50
2022-08-05T07:51:02.759Z,30.60
2022-08-05T07:52:02.882Z,30.60
2022-08-05T07:53:03.035Z,30.60
2022-08-05T07:54:03.009Z,30.60
2022-08-05T07:55:02.963Z,30.70
2022-08-05T07:56:05.971Z,30.70
2022-08-05T07:57:14.923Z,30.70
2022-08-05T07:58:03.905Z,30.70
2022-08-05T07:59:03.373Z,30.70
2022-08-05T08:00:03.354Z,30.70
2022-08-05T08:01:06.029Z,30.80
2022-08-05T08:02:03.427Z,30.80
2022-08-05T08:03:13.512Z,30.80
2022-08-05T08:04:03.489Z,30.90
2022-08-05T08:05:03.449Z,30.90
2022-08-05T08:06:02.684Z,30.90
2022-08-05T08:07:04.044Z,31.00
2022-08-05T08:08:02.652Z,31.00
2022-08-05T08:09:02.699Z,31.00
2022-08-05T08:10:02.735Z,31.00
2022-08-05T08:11:02.822Z,31.00
2022-08-05T08:12:09.509Z,30.90
2022-08-05T08:13:03.039Z,30.90
2022-08-05T08:14:02.958Z,30.90
2022-08-05T08:15:03.396Z,30.90
2022-08-05T08:16:34.105Z,30.90
2022-08-05T08:17:03.021Z,30.90
2022-08-05T08:18:05.017Z,30.80
2022-08-05T08:19:02.956Z,30.80
2022-08-05T08:20:23.121Z,30.80
2022-08-05T08:21:04.154Z,30.80
2022-08-05T08:22:03.455Z,30.80
2022-08-05T08:23:03.500Z,30.80
2022-08-05T08:24:05.213Z,30.80
2022-08-05T08:25:16.587Z,30.90
2022-08-05T08:26:04.579Z,30.90
2022-08-05T08:27:02.654Z,31.00
2022-08-05T08:28:02.735Z,31.00
2022-08-05T08:29:22.341Z,31.00
2022-08-05T08:30:04.876Z,31.00
2022-08-05T08:31:02.806Z,31.00
2022-08-05T08:32:02.740Z,31.00
2022-08-05T08:33:04.713Z,31.10
2022-08-05T08:34:02.727Z,31.10
2022-08-05T08:35:02.680Z,31.10
2022-08-05T08:36:18.722Z,31.10
2022-08-05T08:37:04.952Z,31.10
2022-08-05T08:38:03.364Z,31.10
2022-08-05T08:39:03.446Z,31.10
2022-08-05T08:40:03.623Z,31.10
2022-08-05T08:41:03.431Z,31.10
2022-08-05T08:42:05.496Z,31.00
2022-08-05T08:43:03.509Z,31.00
2022-08-05T08:45:17.434Z,31.00
2022-08-05T08:45:17.482Z,31.10
2022-08-05T08:46:03.601Z,31.00
2022-08-05T08:47:02.638Z,31.00
2022-08-05T08:48:07.940Z,31.00
2022-08-05T08:50:05.576Z,30.90
2022-08-05T08:50:05.652Z,30.90
2022-08-05T08:51:04.315Z,30.90
2022-08-05T08:52:05.750Z,31.00
2022-08-05T08:53:07.808Z,31.00
2022-08-05T08:54:03.404Z,31.10
2022-08-05T08:55:03.390Z,31.10
2022-08-05T08:56:05.719Z,31.20
2022-08-05T08:57:03.448Z,31.30
2022-08-05T08:58:03.489Z,31.40
2022-08-05T08:59:07.090Z,31.40
2022-08-05T09:00:04.344Z,31.50
2022-08-05T09:01:02.676Z,31.50
2022-08-05T09:02:02.754Z,31.50
2022-08-05T09:03:02.866Z,31.60
2022-08-05T09:04:02.916Z,31.50
2022-08-05T09:05:15.919Z,31.60
2022-08-05T09:06:07.328Z,31.60
2022-08-05T09:07:02.957Z,31.60
2022-08-05T09:08:03.017Z,31.60
2022-08-05T09:09:03.148Z,31.60
2022-08-05T09:10:03.204Z,31.60
2022-08-05T09:11:03.214Z,31.60
2022-08-05T09:12:12.398Z,31.60
2022-08-05T09:13:04.572Z,31.60
2022-08-05T09:14:09.859Z,31.70
2022-08-05T09:15:04.093Z,31.70
2022-08-05T09:16:03.102Z,31.70
2022-08-05T09:17:03.538Z,31.70
2022-08-05T09:18:03.527Z,31.70
2022-08-05T09:19:06.740Z,31.70
2022-08-05T09:20:04.618Z,31.70
2022-08-05T09:21:02.696Z,31.70
2022-08-05T09:22:13.772Z,31.70
2022-08-05T09:23:05.422Z,31.80
2022-08-05T09:24:02.830Z,31.80
2022-08-05T09:25:13.578Z,31.70
2022-08-05T09:26:06.377Z,31.70
2022-08-05T09:27:02.921Z,31.70
2022-08-05T09:28:03.528Z,31.70
2022-08-05T09:29:03.048Z,31.70
2022-08-05T09:30:06.412Z,31.70
2022-08-05T09:31:03.151Z,31.70
2022-08-05T09:32:39.737Z,31.80
2022-08-05T09:33:04.528Z,31.80
2022-08-05T09:34:03.613Z,31.90
2022-08-05T09:35:03.613Z,31.90
2022-08-05T09:36:11.951Z,32.00
2022-08-05T09:37:03.552Z,32.00
2022-08-05T09:38:11.881Z,32.00
2022-08-05T09:39:03.802Z,32.10
2022-08-05T09:40:02.680Z,32.10
2022-08-05T09:41:02.761Z,32.10
2022-08-05T09:42:02.719Z,32.10
2022-08-05T09:43:02.847Z,32.00
2022-08-05T09:44:02.921Z,32.00
2022-08-05T09:45:03.446Z,32.00
2022-08-05T09:46:05.419Z,31.90
2022-08-05T09:47:03.087Z,31.90
2022-08-05T09:48:03.317Z,31.90
2022-08-05T09:49:07.411Z,31.80
2022-08-05T09:50:03.543Z,31.80
2022-08-05T09:51:03.354Z,31.80
2022-08-05T09:52:03.353Z,31.80
2022-08-05T09:53:03.408Z,31.80
2022-08-05T09:54:03.470Z,31.80
2022-08-05T09:55:06.211Z,31.90
2022-08-05T09:56:03.687Z,32.00
2022-08-05T09:57:03.505Z,32.00
2022-08-05T09:58:03.450Z,32.10
2022-08-05T09:59:04.131Z,32.20
2022-08-05T10:00:07.380Z,32.20
2022-08-05T10:01:13.689Z,32.20
2022-08-05T10:02:03.557Z,32.30
2022-08-05T10:03:03.665Z,32.30
2022-08-05T10:04:03.728Z,32.30
2022-08-05T10:05:02.653Z,32.40
2022-08-05T10:06:05.993Z,32.40
2022-08-05T10:07:14.209Z,32.50
2022-08-05T10:08:11.461Z,32.50
2022-08-05T10:09:02.888Z,32.60
2022-08-05T10:10:02.838Z,32.60
2022-08-05T10:11:02.998Z,32.60
2022-08-05T10:12:07.295Z,32.70
2022-08-05T10:13:03.075Z,32.70
2022-08-05T10:14:03.200Z,32.80
2022-08-05T10:15:03.185Z,32.80
2022-08-05T10:16:03.207Z,32.80
2022-08-05T10:17:03.246Z,32.80
2022-08-05T10:18:03.315Z,32.90
2022-08-05T10:19:08.427Z,32.90
2022-08-05T10:20:09.871Z,33.00
2022-08-05T10:21:06.214Z,33.00
2022-08-05T10:22:03.284Z,33.10
2022-08-05T10:23:03.410Z,33.10
2022-08-05T10:24:06.297Z,33.20
2022-08-05T10:25:03.290Z,33.20
2022-08-05T10:26:03.310Z,33.20
2022-08-05T10:27:03.408Z,33.30
2022-08-05T10:28:09.975Z,33.30
2022-08-05T10:29:03.343Z,33.20
2022-08-05T10:30:06.210Z,33.20
2022-08-05T10:31:21.208Z,33.20
2022-08-05T10:32:51.260Z,33.10
2022-08-05T10:33:04.236Z,33.10
2022-08-05T10:34:02.946Z,33.10
2022-08-05T10:35:02.982Z,33.10
2022-08-05T10:36:03.111Z,33.10
2022-08-05T10:37:03.316Z,33.10
2022-08-05T10:38:03.246Z,33.10
2022-08-05T10:39:05.183Z,33.20
2022-08-05T10:40:16.841Z,33.20
2022-08-05T10:41:03.488Z,33.30
2022-08-05T10:42:03.523Z,33.40
2022-08-05T10:43:04.599Z,33.40
2022-08-05T10:44:04.727Z,33.50
2022-08-05T10:45:09.774Z,33.50
2022-08-05T10:46:06.117Z,33.60
2022-08-05T10:47:03.100Z,33.60
2022-08-05T10:48:30.468Z,33.60
2022-08-05T10:49:06.446Z,33.70
2022-08-05T10:50:21.006Z,33.70
2022-08-05T10:51:03.491Z,33.80
2022-08-05T10:52:05.479Z,33.80
2022-08-05T10:53:03.976Z,33.80
2022-08-05T10:54:06.075Z,33.80
2022-08-05T10:55:03.518Z,33.90
2022-08-05T10:56:05.537Z,33.90
2022-08-05T10:57:03.641Z,33.90
2022-08-05T10:58:02.619Z,34.00
2022-08-05T10:59:03.825Z,34.00
2022-08-05T11:00:08.265Z,34.00
2022-08-05T11:01:03.340Z,34.10
2022-08-05T11:02:04.846Z,34.10
2022-08-05T11:03:24.018Z,34.10
2022-08-05T11:04:02.768Z,34.10
2022-08-05T11:05:02.670Z,34.10
2022-08-05T11:06:03.770Z,34.20
2022-08-05T11:07:02.872Z,34.20
2022-08-05T11:08:09.348Z,34.20
2022-08-05T11:09:02.972Z,34.20
2022-08-05T11:10:03.590Z,34.20
2022-08-05T11:11:06.068Z,34.30
2022-08-05T11:12:03.071Z,34.30
2022-08-05T11:13:03.175Z,34.30
2022-08-05T11:14:03.113Z,34.30
2022-08-05T11:15:12.019Z,34.30
2022-08-05T11:16:03.187Z,34.30
2022-08-05T11:17:14.210Z,34.20
2022-08-05T11:18:04.020Z,34.20
2022-08-05T11:19:03.022Z,34.20
2022-08-05T11:20:09.741Z,34.20
2022-08-05T11:21:03.073Z,34.20
2022-08-05T11:22:03.045Z,34.20
2022-08-05T11:23:05.775Z,34.20
2022-08-05T11:24:14.522Z,34.20
2022-08-05T11:25:16.775Z,34.20
2022-08-05T11:26:08.474Z,34.20
2022-08-05T11:27:03.265Z,34.20
2022-08-05T11:28:03.259Z,34.20
2022-08-05T11:29:07.031Z,34.20
2022-08-05T11:30:03.289Z,34.20
2022-08-05T11:31:06.369Z,34.20
2022-08-05T11:32:03.403Z,34.20
2022-08-05T11:33:03.395Z,34.20
2022-08-05T11:34:03.629Z,34.30
2022-08-05T11:35:03.392Z,34.30
2022-08-05T11:36:07.814Z,34.30
2022-08-05T11:37:06.017Z,34.30
2022-08-05T11:38:26.081Z,34.40
2022-08-05T11:39:03.617Z,34.40
2022-08-05T11:40:04.552Z,34.40
2022-08-05T11:41:14.348Z,34.50
2022-08-05T11:42:04.458Z,34.50
2022-08-05T11:43:03.324Z,34.50
2022-08-05T11:44:06.821Z,34.50
2022-08-05T11:45:03.243Z,34.50
2022-08-05T11:46:15.889Z,34.50
2022-08-05T11:47:10.394Z,34.50
2022-08-05T11:48:03.374Z,34.50
2022-08-05T11:49:03.475Z,34.50
2022-08-05T11:50:02.656Z,34.50
2022-08-05T11:51:02.724Z,34.50
2022-08-05T11:52:08.859Z,34.50
2022-08-05T11:53:02.865Z,34.50
2022-08-05T11:54:02.793Z,34.50
2022-08-05T11:55:07.265Z,34.50
2022-08-05T11:56:03.008Z,34.50
2022-08-05T11:57:07.810Z,34.50
2022-08-05T11:58:08.780Z,34.50
2022-08-05T11:59:03.067Z,34.40
2022-08-05T12:00:03.193Z,34.40
2022-08-05T12:01:03.182Z,34.30
2022-08-05T12:02:03.120Z,34.30
2022-08-05T12:03:03.313Z,34.20
2022-08-05T12:04:03.373Z,34.10
2022-08-05T12:05:06.650Z,34.00
2022-08-05T12:06:02.892Z,34.00
2022-08-05T12:07:02.924Z,33.90
2022-08-05T12:08:09.447Z,33.90
2022-08-05T12:09:03.005Z,33.80
2022-08-05T12:10:06.210Z,33.80
2022-08-05T12:11:03.454Z,33.70
2022-08-05T12:12:03.050Z,33.70
2022-08-05T12:13:03.093Z,33.60
2022-08-05T12:14:04.188Z,33.60
2022-08-05T12:15:03.259Z,33.60
2022-08-05T12:16:03.327Z,33.60
2022-08-05T12:17:03.441Z,33.60
2022-08-05T12:18:10.397Z,33.60
2022-08-05T12:19:03.530Z,33.60
2022-08-05T12:20:17.636Z,33.60
2022-08-05T12:21:03.571Z,33.70
2022-08-05T12:22:03.653Z,33.70
2022-08-05T12:23:02.710Z,33.70
2022-08-05T12:24:03.346Z,33.70
2022-08-05T12:25:02.671Z,33.70
2022-08-05T12:26:02.635Z,33.70
2022-08-05T12:27:09.590Z,33.70
2022-08-05T12:28:02.648Z,33.70
2022-08-05T12:29:03.118Z,33.70
2022-08-05T12:30:03.231Z,33.70
2022-08-05T12:31:02.948Z,33.70
2022-08-05T12:32:04.383Z,33.70
2022-08-05T12:33:07.053Z,33.70
2022-08-05T12:34:03.087Z,33.70
2022-08-05T12:35:04.023Z,33.70
2022-08-05T12:36:02.873Z,33.60
2022-08-05T12:37:03.384Z,33.60
2022-08-05T12:38:03.002Z,33.60
2022-08-05T12:39:02.925Z,33.50
2022-08-05T12:40:03.074Z,33.50
2022-08-05T12:41:02.864Z,33.50
2022-08-05T12:42:02.716Z,33.50
2022-08-05T12:43:02.820Z,33.50
2022-08-05T12:44:02.935Z,33.50
2022-08-05T12:45:02.996Z,33.40
2022-08-05T12:46:02.970Z,33.40
2022-08-05T12:47:03.581Z,33.50
2022-08-05T12:48:17.733Z,33.40
2022-08-05T12:49:05.694Z,33.40
2022-08-05T12:50:06.097Z,33.40
2022-08-05T12:51:03.191Z,33.40
2022-08-05T12:52:11.573Z,33.40
2022-08-05T12:53:03.276Z,33.40
2022-08-05T12:54:03.253Z,33.40
2022-08-05T12:55:03.229Z,33.40